sensor_id;sensor_type;location;lat;lon;timestamp;P1;durP1;ratioP1;P2;durP2;ratioP2
1507;SDS011;745;48.586;10.032;2024-02-26T00:01:45;7.33;;;5.90;;
1507;SDS011;745;48.586;10.032;2024-02-26T00:03:45;7.30;;;5.90;;
1507;SDS011;745;48.586;10.032;2024-02-26T00:05:47;8.90;;;6.90;;
1507;SDS011;745;48.586;10.032;2024-02-26T00:07:47;6.27;;;5.67;;
1507;SDS011;745;48.586;10.032;2024-02-26T00:09:48;7.82;;;5.88;;
1507;SDS011;745;48.586;10.032;2024-02-26T00:11:49;8.57;;;6.20;;
1507;SDS011;745;48.586;10.032;2024-02-26T00:13:49;9.77;;;7.37;;
1507;SDS011;745;48.586;10.032;2024-02-26T00:15:49;8.03;;;6.77;;
1507;SDS011;745;48.586;10.032;2024-02-26T00:17:50;9.07;;;6.50;;
1507;SDS011;745;48.586;10.032;2024-02-26T00:19:50;9.47;;;7.50;;
1507;SDS011;745;48.586;10.032;2024-02-26T00:21:50;11.03;;;7.73;;
1507;SDS011;745;48.586;10.032;2024-02-26T00:23:52;8.43;;;6.53;;
1507;SDS011;745;48.586;10.032;2024-02-26T00:25:53;7.63;;;6.88;;
1507;SDS011;745;48.586;10.032;2024-02-26T00:27:53;8.83;;;6.40;;
1507;SDS011;745;48.586;10.032;2024-02-26T00:29:53;8.93;;;7.97;;
1507;SDS011;745;48.586;10.032;2024-02-26T00:31:53;7.57;;;6.50;;
1507;SDS011;745;48.586;10.032;2024-02-26T00:33:54;12.70;;;7.57;;
1507;SDS011;745;48.586;10.032;2024-02-26T00:35:54;8.80;;;7.07;;
1507;SDS011;745;48.586;10.032;2024-02-26T00:37:54;9.90;;;7.63;;
1507;SDS011;745;48.586;10.032;2024-02-26T00:39:55;8.50;;;6.93;;
1507;SDS011;745;48.586;10.032;2024-02-26T00:41:55;9.13;;;7.00;;
1507;SDS011;745;48.586;10.032;2024-02-26T00:43:55;11.10;;;6.90;;
1507;SDS011;745;48.586;10.032;2024-02-26T00:45:56;11.30;;;7.53;;
1507;SDS011;745;48.586;10.032;2024-02-26T00:47:56;9.13;;;7.20;;
1507;SDS011;745;48.586;10.032;2024-02-26T00:49:56;10.67;;;7.00;;
1507;SDS011;745;48.586;10.032;2024-02-26T00:51:57;8.90;;;7.43;;
1507;SDS011;745;48.586;10.032;2024-02-26T00:53:57;10.67;;;7.93;;
1507;SDS011;745;48.586;10.032;2024-02-26T00:55:57;9.37;;;7.70;;
1507;SDS011;745;48.586;10.032;2024-02-26T00:58:01;10.48;;;8.23;;
1507;SDS011;745;48.586;10.032;2024-02-26T01:00:01;9.77;;;7.10;;
1507;SDS011;745;48.586;10.032;2024-02-26T01:02:02;12.07;;;7.47;;
1507;SDS011;745;48.586;10.032;2024-02-26T01:04:04;10.23;;;7.38;;
1507;SDS011;745;48.586;10.032;2024-02-26T01:06:04;10.93;;;8.00;;
1507;SDS011;745;48.586;10.032;2024-02-26T01:08:04;10.87;;;7.47;;
1507;SDS011;745;48.586;10.032;2024-02-26T01:10:09;8.13;;;7.23;;
1507;SDS011;745;48.586;10.032;2024-02-26T01:12:09;12.18;;;7.40;;
1507;SDS011;745;48.586;10.032;2024-02-26T01:14:10;9.57;;;8.17;;
1507;SDS011;745;48.586;10.032;2024-02-26T01:16:10;9.00;;;7.13;;
1507;SDS011;745;48.586;10.032;2024-02-26T01:18:11;11.53;;;8.40;;
1507;SDS011;745;48.586;10.032;2024-02-26T01:20:12;9.57;;;7.30;;
1507;SDS011;745;48.586;10.032;2024-02-26T01:22:12;11.77;;;8.30;;
1507;SDS011;745;48.586;10.032;2024-02-26T01:24:12;9.20;;;7.50;;
1507;SDS011;745;48.586;10.032;2024-02-26T01:26:13;10.47;;;8.00;;
1507;SDS011;745;48.586;10.032;2024-02-26T01:28:13;10.53;;;8.00;;
1507;SDS011;745;48.586;10.032;2024-02-26T01:30:14;11.70;;;7.70;;
1507;SDS011;745;48.586;10.032;2024-02-26T01:32:16;9.60;;;7.50;;
1507;SDS011;745;48.586;10.032;2024-02-26T01:34:16;11.37;;;8.07;;
1507;SDS011;745;48.586;10.032;2024-02-26T01:36:18;11.20;;;9.07;;
1507;SDS011;745;48.586;10.032;2024-02-26T01:38:18;9.53;;;7.27;;
1507;SDS011;745;48.586;10.032;2024-02-26T01:40:18;8.83;;;7.40;;
1507;SDS011;745;48.586;10.032;2024-02-26T01:42:19;10.35;;;7.65;;
1507;SDS011;745;48.586;10.032;2024-02-26T01:44:20;11.43;;;8.27;;
1507;SDS011;745;48.586;10.032;2024-02-26T01:46:21;8.93;;;7.65;;
1507;SDS011;745;48.586;10.032;2024-02-26T01:48:22;9.63;;;7.25;;
1507;SDS011;745;48.586;10.032;2024-02-26T01:50:22;8.20;;;7.27;;
1507;SDS011;745;48.586;10.032;2024-02-26T01:52:24;11.15;;;8.32;;
1507;SDS011;745;48.586;10.032;2024-02-26T01:54:24;9.73;;;7.33;;
1507;SDS011;745;48.586;10.032;2024-02-26T01:56:25;9.37;;;7.20;;
1507;SDS011;745;48.586;10.032;2024-02-26T01:58:30;11.13;;;7.90;;
1507;SDS011;745;48.586;10.032;2024-02-26T02:00:30;8.67;;;7.13;;
1507;SDS011;745;48.586;10.032;2024-02-26T02:02:31;10.87;;;8.17;;
1507;SDS011;745;48.586;10.032;2024-02-26T02:04:31;9.00;;;6.93;;
1507;SDS011;745;48.586;10.032;2024-02-26T02:06:32;10.70;;;7.80;;
1507;SDS011;745;48.586;10.032;2024-02-26T02:08:33;9.00;;;6.37;;
1507;SDS011;745;48.586;10.032;2024-02-26T02:10:35;11.13;;;7.88;;
1507;SDS011;745;48.586;10.032;2024-02-26T02:12:35;10.00;;;7.50;;
1507;SDS011;745;48.586;10.032;2024-02-26T02:14:38;9.80;;;7.40;;
1507;SDS011;745;48.586;10.032;2024-02-26T02:16:38;10.00;;;7.77;;
1507;SDS011;745;48.586;10.032;2024-02-26T02:18:39;9.23;;;7.83;;
1507;SDS011;745;48.586;10.032;2024-02-26T02:20:39;9.43;;;7.17;;
1507;SDS011;745;48.586;10.032;2024-02-26T02:22:39;9.77;;;7.33;;
1507;SDS011;745;48.586;10.032;2024-02-26T02:24:40;7.57;;;6.53;;
1507;SDS011;745;48.586;10.032;2024-02-26T02:26:40;12.23;;;8.60;;
1507;SDS011;745;48.586;10.032;2024-02-26T02:28:40;9.20;;;7.33;;
1507;SDS011;745;48.586;10.032;2024-02-26T02:30:41;10.20;;;8.07;;
1507;SDS011;745;48.586;10.032;2024-02-26T02:32:41;12.57;;;8.30;;
1507;SDS011;745;48.586;10.032;2024-02-26T02:34:42;10.10;;;7.97;;
1507;SDS011;745;48.586;10.032;2024-02-26T02:36:52;9.97;;;7.90;;
1507;SDS011;745;48.586;10.032;2024-02-26T02:38:53;11.40;;;7.13;;
1507;SDS011;745;48.586;10.032;2024-02-26T02:40:53;10.07;;;8.07;;
1507;SDS011;745;48.586;10.032;2024-02-26T02:42:53;12.20;;;9.20;;
1507;SDS011;745;48.586;10.032;2024-02-26T02:44:53;12.30;;;9.00;;
1507;SDS011;745;48.586;10.032;2024-02-26T02:46:54;11.80;;;7.97;;
1507;SDS011;745;48.586;10.032;2024-02-26T02:48:54;9.07;;;7.87;;
1507;SDS011;745;48.586;10.032;2024-02-26T02:50:55;10.40;;;7.80;;
1507;SDS011;745;48.586;10.032;2024-02-26T02:52:55;9.93;;;7.88;;
1507;SDS011;745;48.586;10.032;2024-02-26T02:54:56;10.83;;;8.73;;
1507;SDS011;745;48.586;10.032;2024-02-26T02:56:56;10.27;;;7.80;;
1507;SDS011;745;48.586;10.032;2024-02-26T02:58:56;12.40;;;8.93;;
1507;SDS011;745;48.586;10.032;2024-02-26T03:00:57;10.90;;;8.47;;
1507;SDS011;745;48.586;10.032;2024-02-26T03:02:57;10.90;;;8.93;;
1507;SDS011;745;48.586;10.032;2024-02-26T03:04:57;13.20;;;8.80;;
1507;SDS011;745;48.586;10.032;2024-02-26T03:06:58;10.80;;;8.97;;
1507;SDS011;745;48.586;10.032;2024-02-26T03:08:58;10.63;;;8.60;;
1507;SDS011;745;48.586;10.032;2024-02-26T03:10:58;11.80;;;8.70;;
1507;SDS011;745;48.586;10.032;2024-02-26T03:12:59;10.23;;;8.07;;
1507;SDS011;745;48.586;10.032;2024-02-26T03:15:00;11.30;;;8.33;;
1507;SDS011;745;48.586;10.032;2024-02-26T03:17:02;10.10;;;8.05;;
1507;SDS011;745;48.586;10.032;2024-02-26T03:19:03;10.07;;;8.07;;
1507;SDS011;745;48.586;10.032;2024-02-26T03:21:03;12.67;;;8.87;;
1507;SDS011;745;48.586;10.032;2024-02-26T03:23:04;10.90;;;8.60;;
1507;SDS011;745;48.586;10.032;2024-02-26T03:25:04;12.37;;;8.77;;
1507;SDS011;745;48.586;10.032;2024-02-26T03:27:05;12.80;;;8.50;;
1507;SDS011;745;48.586;10.032;2024-02-26T03:29:09;10.35;;;8.15;;
1507;SDS011;745;48.586;10.032;2024-02-26T03:31:10;12.40;;;8.65;;
1507;SDS011;745;48.586;10.032;2024-02-26T03:33:10;13.37;;;9.43;;
1507;SDS011;745;48.586;10.032;2024-02-26T03:35:11;13.20;;;9.57;;
1507;SDS011;745;48.586;10.032;2024-02-26T03:37:11;10.67;;;9.00;;
1507;SDS011;745;48.586;10.032;2024-02-26T03:39:12;11.70;;;9.10;;
1507;SDS011;745;48.586;10.032;2024-02-26T03:41:12;12.93;;;9.00;;
1507;SDS011;745;48.586;10.032;2024-02-26T03:43:12;11.50;;;9.20;;
1507;SDS011;745;48.586;10.032;2024-02-26T03:45:13;14.10;;;9.10;;
1507;SDS011;745;48.586;10.032;2024-02-26T03:47:14;13.23;;;9.67;;
1507;SDS011;745;48.586;10.032;2024-02-26T03:49:14;16.17;;;10.47;;
1507;SDS011;745;48.586;10.032;2024-02-26T03:51:14;12.37;;;9.10;;
1507;SDS011;745;48.586;10.032;2024-02-26T03:53:15;11.77;;;8.93;;
1507;SDS011;745;48.586;10.032;2024-02-26T03:55:15;14.40;;;10.33;;
1507;SDS011;745;48.586;10.032;2024-02-26T03:57:15;14.00;;;9.60;;
1507;SDS011;745;48.586;10.032;2024-02-26T03:59:16;17.03;;;10.80;;
1507;SDS011;745;48.586;10.032;2024-02-26T04:01:16;15.40;;;10.25;;
1507;SDS011;745;48.586;10.032;2024-02-26T04:03:17;12.67;;;9.60;;
1507;SDS011;745;48.586;10.032;2024-02-26T04:05:17;14.20;;;9.60;;
1507;SDS011;745;48.586;10.032;2024-02-26T04:07:17;14.27;;;10.47;;
1507;SDS011;745;48.586;10.032;2024-02-26T04:09:18;15.53;;;10.67;;
1507;SDS011;745;48.586;10.032;2024-02-26T04:11:18;13.20;;;10.10;;
1507;SDS011;745;48.586;10.032;2024-02-26T04:13:19;14.20;;;9.83;;
1507;SDS011;745;48.586;10.032;2024-02-26T04:15:19;13.23;;;9.60;;
1507;SDS011;745;48.586;10.032;2024-02-26T04:17:19;11.30;;;8.40;;
1507;SDS011;745;48.586;10.032;2024-02-26T04:19:20;13.70;;;10.67;;
1507;SDS011;745;48.586;10.032;2024-02-26T04:21:20;14.67;;;10.40;;
1507;SDS011;745;48.586;10.032;2024-02-26T04:23:20;15.50;;;9.90;;
1507;SDS011;745;48.586;10.032;2024-02-26T04:25:21;12.70;;;10.10;;
1507;SDS011;745;48.586;10.032;2024-02-26T04:27:21;15.17;;;9.93;;
1507;SDS011;745;48.586;10.032;2024-02-26T04:29:22;12.67;;;9.07;;
1507;SDS011;745;48.586;10.032;2024-02-26T04:31:22;15.30;;;10.40;;
1507;SDS011;745;48.586;10.032;2024-02-26T04:33:22;15.10;;;10.30;;
1507;SDS011;745;48.586;10.032;2024-02-26T04:35:22;13.30;;;10.10;;
1507;SDS011;745;48.586;10.032;2024-02-26T04:37:23;12.13;;;9.10;;
1507;SDS011;745;48.586;10.032;2024-02-26T04:39:23;15.03;;;10.07;;
1507;SDS011;745;48.586;10.032;2024-02-26T04:41:23;13.30;;;9.93;;
1507;SDS011;745;48.586;10.032;2024-02-26T04:43:24;11.10;;;8.63;;
1507;SDS011;745;48.586;10.032;2024-02-26T04:45:24;13.50;;;9.20;;
1507;SDS011;745;48.586;10.032;2024-02-26T04:47:25;12.33;;;8.90;;
1507;SDS011;745;48.586;10.032;2024-02-26T04:49:25;12.63;;;8.90;;
1507;SDS011;745;48.586;10.032;2024-02-26T04:51:25;11.20;;;8.07;;
1507;SDS011;745;48.586;10.032;2024-02-26T04:53:26;10.67;;;8.77;;
1507;SDS011;745;48.586;10.032;2024-02-26T04:55:26;11.07;;;8.30;;
1507;SDS011;745;48.586;10.032;2024-02-26T04:57:26;11.60;;;8.60;;
1507;SDS011;745;48.586;10.032;2024-02-26T04:59:27;11.27;;;8.10;;
1507;SDS011;745;48.586;10.032;2024-02-26T05:01:27;11.57;;;9.33;;
1507;SDS011;745;48.586;10.032;2024-02-26T05:03:27;14.33;;;10.07;;
1507;SDS011;745;48.586;10.032;2024-02-26T05:05:28;12.33;;;10.40;;
1507;SDS011;745;48.586;10.032;2024-02-26T05:07:28;11.80;;;9.60;;
1507;SDS011;745;48.586;10.032;2024-02-26T05:09:28;17.00;;;10.60;;
1507;SDS011;745;48.586;10.032;2024-02-26T05:11:29;12.60;;;9.20;;
1507;SDS011;745;48.586;10.032;2024-02-26T05:13:29;12.67;;;9.13;;
1507;SDS011;745;48.586;10.032;2024-02-26T05:15:29;12.90;;;8.60;;
1507;SDS011;745;48.586;10.032;2024-02-26T05:17:30;10.90;;;8.93;;
1507;SDS011;745;48.586;10.032;2024-02-26T05:19:30;16.70;;;10.10;;
1507;SDS011;745;48.586;10.032;2024-02-26T05:21:30;12.97;;;9.27;;
1507;SDS011;745;48.586;10.032;2024-02-26T05:23:30;12.90;;;8.93;;
1507;SDS011;745;48.586;10.032;2024-02-26T05:25:31;13.53;;;9.03;;
1507;SDS011;745;48.586;10.032;2024-02-26T05:27:31;14.77;;;10.40;;
1507;SDS011;745;48.586;10.032;2024-02-26T05:29:31;14.07;;;9.37;;
1507;SDS011;745;48.586;10.032;2024-02-26T05:31:32;12.07;;;9.40;;
1507;SDS011;745;48.586;10.032;2024-02-26T05:33:32;11.80;;;8.97;;
1507;SDS011;745;48.586;10.032;2024-02-26T05:35:32;14.43;;;10.47;;
1507;SDS011;745;48.586;10.032;2024-02-26T05:37:33;14.13;;;10.47;;
1507;SDS011;745;48.586;10.032;2024-02-26T05:39:34;11.55;;;9.68;;
1507;SDS011;745;48.586;10.032;2024-02-26T05:41:34;12.57;;;9.93;;
1507;SDS011;745;48.586;10.032;2024-02-26T05:43:35;15.10;;;9.90;;
1507;SDS011;745;48.586;10.032;2024-02-26T05:45:35;14.53;;;11.10;;
1507;SDS011;745;48.586;10.032;2024-02-26T05:47:36;15.70;;;10.27;;
1507;SDS011;745;48.586;10.032;2024-02-26T05:49:42;15.25;;;10.60;;
1507;SDS011;745;48.586;10.032;2024-02-26T05:51:42;14.33;;;10.87;;
1507;SDS011;745;48.586;10.032;2024-02-26T05:53:43;13.80;;;10.23;;
1507;SDS011;745;48.586;10.032;2024-02-26T05:55:43;15.13;;;10.70;;
1507;SDS011;745;48.586;10.032;2024-02-26T05:57:43;20.20;;;10.60;;
1507;SDS011;745;48.586;10.032;2024-02-26T05:59:44;16.50;;;11.53;;
1507;SDS011;745;48.586;10.032;2024-02-26T06:01:44;18.53;;;12.70;;
1507;SDS011;745;48.586;10.032;2024-02-26T06:03:44;21.83;;;11.80;;
1507;SDS011;745;48.586;10.032;2024-02-26T06:05:45;17.57;;;11.13;;
1507;SDS011;745;48.586;10.032;2024-02-26T06:07:46;14.02;;;10.30;;
1507;SDS011;745;48.586;10.032;2024-02-26T06:09:46;18.17;;;12.50;;
1507;SDS011;745;48.586;10.032;2024-02-26T06:11:47;18.10;;;10.80;;
1507;SDS011;745;48.586;10.032;2024-02-26T06:13:47;15.60;;;11.00;;
1507;SDS011;745;48.586;10.032;2024-02-26T06:15:47;13.97;;;10.83;;
1507;SDS011;745;48.586;10.032;2024-02-26T06:17:48;19.20;;;11.33;;
1507;SDS011;745;48.586;10.032;2024-02-26T06:19:48;14.97;;;11.80;;
1507;SDS011;745;48.586;10.032;2024-02-26T06:21:48;17.37;;;12.23;;
1507;SDS011;745;48.586;10.032;2024-02-26T06:23:50;17.00;;;12.00;;
1507;SDS011;745;48.586;10.032;2024-02-26T06:25:50;17.90;;;11.00;;
1507;SDS011;745;48.586;10.032;2024-02-26T06:27:51;17.87;;;12.10;;
1507;SDS011;745;48.586;10.032;2024-02-26T06:29:51;17.47;;;11.90;;
1507;SDS011;745;48.586;10.032;2024-02-26T06:31:51;16.70;;;10.90;;
1507;SDS011;745;48.586;10.032;2024-02-26T06:33:52;16.83;;;11.17;;
1507;SDS011;745;48.586;10.032;2024-02-26T06:35:52;17.43;;;11.93;;
1507;SDS011;745;48.586;10.032;2024-02-26T06:37:52;20.20;;;12.03;;
1507;SDS011;745;48.586;10.032;2024-02-26T06:39:53;16.03;;;12.30;;
1507;SDS011;745;48.586;10.032;2024-02-26T06:41:53;17.47;;;12.20;;
1507;SDS011;745;48.586;10.032;2024-02-26T06:44:00;19.38;;;12.85;;
1507;SDS011;745;48.586;10.032;2024-02-26T06:46:00;19.40;;;11.97;;
1507;SDS011;745;48.586;10.032;2024-02-26T06:48:00;16.53;;;11.23;;
1507;SDS011;745;48.586;10.032;2024-02-26T06:50:01;16.30;;;12.23;;
1507;SDS011;745;48.586;10.032;2024-02-26T06:52:01;19.57;;;12.23;;
1507;SDS011;745;48.586;10.032;2024-02-26T06:54:02;16.67;;;11.83;;
1507;SDS011;745;48.586;10.032;2024-02-26T06:56:02;18.17;;;12.27;;
1507;SDS011;745;48.586;10.032;2024-02-26T06:58:03;18.93;;;12.57;;
1507;SDS011;745;48.586;10.032;2024-02-26T07:00:04;15.40;;;10.67;;
1507;SDS011;745;48.586;10.032;2024-02-26T07:02:05;17.20;;;11.93;;
1507;SDS011;745;48.586;10.032;2024-02-26T07:04:05;18.10;;;12.60;;
1507;SDS011;745;48.586;10.032;2024-02-26T07:06:05;19.03;;;12.23;;
1507;SDS011;745;48.586;10.032;2024-02-26T07:08:07;17.35;;;12.30;;
1507;SDS011;745;48.586;10.032;2024-02-26T07:10:07;20.03;;;12.93;;
1507;SDS011;745;48.586;10.032;2024-02-26T07:12:08;19.30;;;13.60;;
1507;SDS011;745;48.586;10.032;2024-02-26T07:14:09;21.97;;;13.13;;
1507;SDS011;745;48.586;10.032;2024-02-26T07:16:10;16.35;;;11.68;;
1507;SDS011;745;48.586;10.032;2024-02-26T07:18:10;17.13;;;13.10;;
1507;SDS011;745;48.586;10.032;2024-02-26T07:20:11;19.30;;;12.20;;
1507;SDS011;745;48.586;10.032;2024-02-26T07:22:12;20.17;;;12.53;;
1507;SDS011;745;48.586;10.032;2024-02-26T07:24:12;18.80;;;12.07;;
1507;SDS011;745;48.586;10.032;2024-02-26T07:26:12;19.63;;;12.43;;
1507;SDS011;745;48.586;10.032;2024-02-26T07:28:13;19.03;;;12.00;;
1507;SDS011;745;48.586;10.032;2024-02-26T07:30:13;19.00;;;13.13;;
1507;SDS011;745;48.586;10.032;2024-02-26T07:32:14;18.90;;;12.63;;
1507;SDS011;745;48.586;10.032;2024-02-26T07:34:15;16.27;;;11.55;;
1507;SDS011;745;48.586;10.032;2024-02-26T07:36:16;19.90;;;13.50;;
1507;SDS011;745;48.586;10.032;2024-02-26T07:38:16;18.57;;;12.27;;
1507;SDS011;745;48.586;10.032;2024-02-26T07:40:16;20.73;;;12.20;;
1507;SDS011;745;48.586;10.032;2024-02-26T07:42:17;19.33;;;13.53;;
1507;SDS011;745;48.586;10.032;2024-02-26T07:44:17;17.00;;;12.33;;
1507;SDS011;745;48.586;10.032;2024-02-26T07:46:17;20.03;;;13.13;;
1507;SDS011;745;48.586;10.032;2024-02-26T07:48:18;17.13;;;12.33;;
1507;SDS011;745;48.586;10.032;2024-02-26T07:50:18;16.97;;;12.10;;
1507;SDS011;745;48.586;10.032;2024-02-26T07:52:19;15.45;;;11.48;;
1507;SDS011;745;48.586;10.032;2024-02-26T07:54:20;19.30;;;13.17;;
1507;SDS011;745;48.586;10.032;2024-02-26T07:56:20;15.93;;;11.37;;
1507;SDS011;745;48.586;10.032;2024-02-26T07:58:20;18.43;;;12.37;;
1507;SDS011;745;48.586;10.032;2024-02-26T08:00:21;19.80;;;12.53;;
1507;SDS011;745;48.586;10.032;2024-02-26T08:02:21;18.43;;;11.70;;
1507;SDS011;745;48.586;10.032;2024-02-26T08:04:22;15.53;;;12.10;;
1507;SDS011;745;48.586;10.032;2024-02-26T08:06:23;16.30;;;11.87;;
1507;SDS011;745;48.586;10.032;2024-02-26T08:08:23;16.95;;;11.88;;
1507;SDS011;745;48.586;10.032;2024-02-26T08:10:23;15.70;;;11.23;;
1507;SDS011;745;48.586;10.032;2024-02-26T08:12:24;17.27;;;11.97;;
1507;SDS011;745;48.586;10.032;2024-02-26T08:14:24;15.37;;;11.80;;
1507;SDS011;745;48.586;10.032;2024-02-26T08:16:24;14.70;;;10.93;;
1507;SDS011;745;48.586;10.032;2024-02-26T08:18:25;14.33;;;11.00;;
1507;SDS011;745;48.586;10.032;2024-02-26T08:20:25;16.90;;;11.80;;
1507;SDS011;745;48.586;10.032;2024-02-26T08:22:26;16.57;;;11.20;;
1507;SDS011;745;48.586;10.032;2024-02-26T08:24:26;19.20;;;12.87;;
1507;SDS011;745;48.586;10.032;2024-02-26T08:26:26;16.20;;;11.27;;
1507;SDS011;745;48.586;10.032;2024-02-26T08:28:27;16.60;;;11.90;;
1507;SDS011;745;48.586;10.032;2024-02-26T08:30:27;18.87;;;12.07;;
1507;SDS011;745;48.586;10.032;2024-02-26T08:32:28;18.53;;;12.37;;
1507;SDS011;745;48.586;10.032;2024-02-26T08:34:28;15.97;;;12.00;;
1507;SDS011;745;48.586;10.032;2024-02-26T08:36:30;16.80;;;11.55;;
1507;SDS011;745;48.586;10.032;2024-02-26T08:38:32;16.95;;;11.77;;
1507;SDS011;745;48.586;10.032;2024-02-26T08:40:34;15.10;;;11.10;;
1507;SDS011;745;48.586;10.032;2024-02-26T08:42:35;16.23;;;11.17;;
1507;SDS011;745;48.586;10.032;2024-02-26T08:44:36;15.20;;;10.57;;
1507;SDS011;745;48.586;10.032;2024-02-26T08:46:36;16.67;;;11.47;;
1507;SDS011;745;48.586;10.032;2024-02-26T08:48:38;13.83;;;11.03;;
1507;SDS011;745;48.586;10.032;2024-02-26T08:50:39;13.80;;;10.70;;
1507;SDS011;745;48.586;10.032;2024-02-26T08:52:39;18.10;;;11.47;;
1507;SDS011;745;48.586;10.032;2024-02-26T08:54:40;16.95;;;11.93;;
1507;SDS011;745;48.586;10.032;2024-02-26T08:56:40;13.77;;;9.80;;
1507;SDS011;745;48.586;10.032;2024-02-26T08:58:41;16.23;;;12.30;;
1507;SDS011;745;48.586;10.032;2024-02-26T09:00:41;16.33;;;12.33;;
1507;SDS011;745;48.586;10.032;2024-02-26T09:02:41;17.47;;;12.87;;
1507;SDS011;745;48.586;10.032;2024-02-26T09:04:43;16.13;;;11.95;;
1507;SDS011;745;48.586;10.032;2024-02-26T09:06:44;14.80;;;10.60;;
1507;SDS011;745;48.586;10.032;2024-02-26T09:08:44;15.50;;;11.27;;
1507;SDS011;745;48.586;10.032;2024-02-26T09:10:44;15.17;;;10.00;;
1507;SDS011;745;48.586;10.032;2024-02-26T09:12:45;11.47;;;9.43;;
1507;SDS011;745;48.586;10.032;2024-02-26T09:14:45;14.83;;;10.47;;
1507;SDS011;745;48.586;10.032;2024-02-26T09:16:45;13.67;;;10.00;;
1507;SDS011;745;48.586;10.032;2024-02-26T09:18:46;14.50;;;9.57;;
1507;SDS011;745;48.586;10.032;2024-02-26T09:20:47;12.02;;;9.77;;
1507;SDS011;745;48.586;10.032;2024-02-26T09:22:47;14.20;;;10.37;;
1507;SDS011;745;48.586;10.032;2024-02-26T09:24:48;13.00;;;10.30;;
1507;SDS011;745;48.586;10.032;2024-02-26T09:26:50;11.70;;;8.73;;
1507;SDS011;745;48.586;10.032;2024-02-26T09:28:50;15.37;;;10.40;;
1507;SDS011;745;48.586;10.032;2024-02-26T09:30:50;12.50;;;9.53;;
1507;SDS011;745;48.586;10.032;2024-02-26T09:32:51;14.03;;;10.57;;
1507;SDS011;745;48.586;10.032;2024-02-26T09:34:51;12.73;;;10.60;;
1507;SDS011;745;48.586;10.032;2024-02-26T09:36:51;15.30;;;11.33;;
1507;SDS011;745;48.586;10.032;2024-02-26T09:38:52;12.70;;;9.93;;
1507;SDS011;745;48.586;10.032;2024-02-26T09:40:52;13.43;;;9.37;;
1507;SDS011;745;48.586;10.032;2024-02-26T09:42:53;13.07;;;9.50;;
1507;SDS011;745;48.586;10.032;2024-02-26T09:44:59;13.27;;;10.10;;
1507;SDS011;745;48.586;10.032;2024-02-26T09:47:01;13.95;;;9.98;;
1507;SDS011;745;48.586;10.032;2024-02-26T09:49:03;13.57;;;10.07;;
1507;SDS011;745;48.586;10.032;2024-02-26T09:51:04;14.55;;;9.52;;
1507;SDS011;745;48.586;10.032;2024-02-26T09:53:05;13.57;;;10.07;;
1507;SDS011;745;48.586;10.032;2024-02-26T09:55:08;13.60;;;10.05;;
1507;SDS011;745;48.586;10.032;2024-02-26T09:57:10;15.20;;;9.13;;
1507;SDS011;745;48.586;10.032;2024-02-26T09:59:17;10.02;;;8.75;;
1507;SDS011;745;48.586;10.032;2024-02-26T10:01:17;13.25;;;8.90;;
1507;SDS011;745;48.586;10.032;2024-02-26T10:03:18;10.83;;;7.80;;
1507;SDS011;745;48.586;10.032;2024-02-26T10:05:21;12.48;;;8.63;;
1507;SDS011;745;48.586;10.032;2024-02-26T10:07:22;11.13;;;9.02;;
1507;SDS011;745;48.586;10.032;2024-02-26T10:09:23;14.90;;;8.50;;
1507;SDS011;745;48.586;10.032;2024-02-26T10:11:24;13.15;;;9.02;;
1507;SDS011;745;48.586;10.032;2024-02-26T10:13:25;10.10;;;8.00;;
1507;SDS011;745;48.586;10.032;2024-02-26T10:15:25;9.43;;;7.47;;
1507;SDS011;745;48.586;10.032;2024-02-26T10:17:25;12.00;;;8.60;;
1507;SDS011;745;48.586;10.032;2024-02-26T10:19:26;9.97;;;7.20;;
1507;SDS011;745;48.586;10.032;2024-02-26T10:21:27;10.65;;;7.50;;
1507;SDS011;745;48.586;10.032;2024-02-26T10:23:28;9.10;;;6.80;;
1507;SDS011;745;48.586;10.032;2024-02-26T10:25:28;11.60;;;8.10;;
1507;SDS011;745;48.586;10.032;2024-02-26T10:27:31;10.50;;;7.95;;
1507;SDS011;745;48.586;10.032;2024-02-26T10:29:32;11.93;;;7.50;;
1507;SDS011;745;48.586;10.032;2024-02-26T10:31:32;6.80;;;6.07;;
1507;SDS011;745;48.586;10.032;2024-02-26T10:33:33;10.00;;;7.50;;
1507;SDS011;745;48.586;10.032;2024-02-26T10:35:35;8.13;;;6.40;;
1507;SDS011;745;48.586;10.032;2024-02-26T10:37:40;8.30;;;5.80;;
1507;SDS011;745;48.586;10.032;2024-02-26T10:39:46;10.10;;;6.07;;
1507;SDS011;745;48.586;10.032;2024-02-26T10:41:47;6.95;;;5.45;;
1507;SDS011;745;48.586;10.032;2024-02-26T10:43:47;7.00;;;5.90;;
1507;SDS011;745;48.586;10.032;2024-02-26T10:45:47;5.93;;;4.97;;
1507;SDS011;745;48.586;10.032;2024-02-26T10:47:48;4.23;;;3.90;;
1507;SDS011;745;48.586;10.032;2024-02-26T10:49:48;5.30;;;4.43;;
1507;SDS011;745;48.586;10.032;2024-02-26T10:51:55;5.63;;;4.55;;
1507;SDS011;745;48.586;10.032;2024-02-26T10:53:59;5.70;;;4.63;;
1507;SDS011;745;48.586;10.032;2024-02-26T10:56:02;4.15;;;3.75;;
1507;SDS011;745;48.586;10.032;2024-02-26T10:58:04;4.38;;;3.80;;
1507;SDS011;745;48.586;10.032;2024-02-26T11:00:06;5.68;;;4.18;;
1507;SDS011;745;48.586;10.032;2024-02-26T11:02:10;4.65;;;3.58;;
1507;SDS011;745;48.586;10.032;2024-02-26T11:04:10;4.73;;;3.70;;
1507;SDS011;745;48.586;10.032;2024-02-26T11:06:12;4.93;;;4.00;;
1507;SDS011;745;48.586;10.032;2024-02-26T11:08:12;5.05;;;4.50;;
1507;SDS011;745;48.586;10.032;2024-02-26T11:10:13;6.03;;;4.27;;
1507;SDS011;745;48.586;10.032;2024-02-26T11:12:14;4.85;;;4.38;;
1507;SDS011;745;48.586;10.032;2024-02-26T11:14:15;6.73;;;4.63;;
1507;SDS011;745;48.586;10.032;2024-02-26T11:16:18;5.22;;;4.28;;
1507;SDS011;745;48.586;10.032;2024-02-26T11:18:19;7.18;;;5.80;;
1507;SDS011;745;48.586;10.032;2024-02-26T11:20:19;4.97;;;4.47;;
1507;SDS011;745;48.586;10.032;2024-02-26T11:22:20;4.97;;;4.47;;
1507;SDS011;745;48.586;10.032;2024-02-26T11:24:22;6.35;;;5.00;;
1507;SDS011;745;48.586;10.032;2024-02-26T11:26:22;6.87;;;5.47;;
1507;SDS011;745;48.586;10.032;2024-02-26T11:28:23;5.82;;;4.35;;
1507;SDS011;745;48.586;10.032;2024-02-26T11:30:24;6.50;;;4.82;;
1507;SDS011;745;48.586;10.032;2024-02-26T11:32:26;7.68;;;5.63;;
1507;SDS011;745;48.586;10.032;2024-02-26T11:34:30;5.78;;;4.72;;
1507;SDS011;745;48.586;10.032;2024-02-26T11:36:30;5.27;;;4.27;;
1507;SDS011;745;48.586;10.032;2024-02-26T11:38:30;6.60;;;5.47;;
1507;SDS011;745;48.586;10.032;2024-02-26T11:40:31;5.03;;;4.30;;
1507;SDS011;745;48.586;10.032;2024-02-26T11:42:32;6.05;;;4.70;;
1507;SDS011;745;48.586;10.032;2024-02-26T11:44:32;5.27;;;4.57;;
1507;SDS011;745;48.586;10.032;2024-02-26T11:46:33;3.83;;;3.43;;
1507;SDS011;745;48.586;10.032;2024-02-26T11:48:39;4.68;;;3.65;;
1507;SDS011;745;48.586;10.032;2024-02-26T11:50:40;3.80;;;3.43;;
1507;SDS011;745;48.586;10.032;2024-02-26T11:55:32;4.80;;;4.30;;
1507;SDS011;745;48.586;10.032;2024-02-26T11:59:39;5.47;;;4.25;;
1507;SDS011;745;48.586;10.032;2024-02-26T12:03:47;4.57;;;3.95;;
1507;SDS011;745;48.586;10.032;2024-02-26T12:05:48;6.70;;;4.40;;
1507;SDS011;745;48.586;10.032;2024-02-26T12:08:02;5.93;;;4.80;;
1507;SDS011;745;48.586;10.032;2024-02-26T12:10:21;6.28;;;5.18;;
1507;SDS011;745;48.586;10.032;2024-02-26T12:12:25;6.43;;;5.82;;
1507;SDS011;745;48.586;10.032;2024-02-26T12:14:26;6.07;;;5.43;;
1507;SDS011;745;48.586;10.032;2024-02-26T12:16:36;6.23;;;5.63;;
1507;SDS011;745;48.586;10.032;2024-02-26T12:18:38;7.20;;;5.75;;
1507;SDS011;745;48.586;10.032;2024-02-26T12:20:41;7.47;;;5.78;;
1507;SDS011;745;48.586;10.032;2024-02-26T12:22:41;6.70;;;4.87;;
1507;SDS011;745;48.586;10.032;2024-02-26T12:24:45;6.18;;;5.15;;
1507;SDS011;745;48.586;10.032;2024-02-26T12:26:45;6.10;;;5.23;;